WZZ247Y EPWA-LFPG
Flight info
| Callsign | WZZ247Y |
|---|---|
| Flight time | 2h 1m |
| Altitude | 36000 |
| Route | SOXER DCT VAMPU DCT BAXIS DCT UVIVI DCT NAROX DCT KOMIB DCT LOHRE DCT BETEX DCT IDOSA UN857 TOLVU/N0449F370 DCT RAPOR DCT VEDUS |
| Aircraft | A321/M-SDE3FGHIRWY/LB1 |
Departure
| Time | 2026-05-07 19:39 |
|---|---|
| Airport | Warsaw Chopin Airport (EPWA) |
Arrival
| Time | 2026-05-07 21:40 |
|---|---|
| Airport | Charles de Gaulle International Airport (LFPG) |
| Time | Latitude | Longitude | Altitude | Speed | Heading |
|---|---|---|---|---|---|
| 2026-05-07 19:12 | 52.17198 | 20.96678 | 312 ft | 0 kts | 207° |
| 2026-05-07 19:34 | 52.17197 | 20.96677 | 339 ft | 1 kts | 207° |
| 2026-05-07 19:34 | 52.17168 | 20.96640 | 333 ft | 9 kts | 230° |
| 2026-05-07 19:35 | 52.17090 | 20.96660 | 337 ft | 16 kts | 151° |
| 2026-05-07 19:35 | 52.16984 | 20.96752 | 336 ft | 18 kts | 152° |
| 2026-05-07 19:35 | 52.16872 | 20.96849 | 333 ft | 19 kts | 152° |
| 2026-05-07 19:35 | 52.16754 | 20.96952 | 339 ft | 20 kts | 152° |
| 2026-05-07 19:36 | 52.16653 | 20.97094 | 335 ft | 20 kts | 115° |
| 2026-05-07 19:36 | 52.16594 | 20.97302 | 333 ft | 21 kts | 115° |
| 2026-05-07 19:36 | 52.16533 | 20.97519 | 337 ft | 21 kts | 114° |
| 2026-05-07 19:36 | 52.16470 | 20.97742 | 336 ft | 22 kts | 115° |
| 2026-05-07 19:37 | 52.16400 | 20.97794 | 338 ft | 11 kts | 201° |
| 2026-05-07 19:37 | 52.16330 | 20.97738 | 335 ft | 12 kts | 211° |
| 2026-05-07 19:37 | 52.16318 | 20.97626 | 334 ft | 8 kts | 294° |
| 2026-05-07 19:37 | 52.16323 | 20.97608 | 334 ft | 0 kts | 294° |
| 2026-05-07 19:38 | 52.16323 | 20.97606 | 338 ft | 1 kts | 294° |
| 2026-05-07 19:38 | 52.16352 | 20.97506 | 334 ft | 22 kts | 295° |
| 2026-05-07 19:39 | 52.16530 | 20.96873 | 337 ft | 104 kts | 294° |
| 2026-05-07 19:39 | 52.16935 | 20.95438 | 404 ft | 165 kts | 298° |
| 2026-05-07 19:39 | 52.17405 | 20.93794 | 1195 ft | 159 kts | 297° |
| 2026-05-07 19:39 | 52.17859 | 20.92157 | 1862 ft | 159 kts | 296° |
| 2026-05-07 19:40 | 52.18231 | 20.90408 | 2420 ft | 175 kts | 276° |
| 2026-05-07 19:40 | 52.18127 | 20.88315 | 2683 ft | 197 kts | 265° |
| 2026-05-07 19:40 | 52.18008 | 20.85965 | 2884 ft | 219 kts | 266° |
| 2026-05-07 19:40 | 52.17951 | 20.83341 | 3051 ft | 245 kts | 277° |
| 2026-05-07 19:41 | 52.18343 | 20.80572 | 3609 ft | 255 kts | 284° |
| 2026-05-07 19:41 | 52.18756 | 20.77779 | 4368 ft | 258 kts | 283° |
| 2026-05-07 19:41 | 52.19159 | 20.74915 | 5174 ft | 261 kts | 282° |
| 2026-05-07 19:41 | 52.19546 | 20.72018 | 5969 ft | 263 kts | 277° |
| 2026-05-07 19:42 | 52.19469 | 20.69052 | 6707 ft | 265 kts | 255° |
| 2026-05-07 19:42 | 52.18860 | 20.66209 | 7444 ft | 267 kts | 250° |
| 2026-05-07 19:42 | 52.18219 | 20.63351 | 8195 ft | 270 kts | 250° |
| 2026-05-07 19:42 | 52.17576 | 20.60467 | 8935 ft | 272 kts | 250° |
| 2026-05-07 19:43 | 52.16928 | 20.57556 | 9697 ft | 275 kts | 249° |
| 2026-05-07 19:43 | 52.16277 | 20.54639 | 10281 ft | 283 kts | 249° |
| 2026-05-07 19:43 | 52.15577 | 20.51508 | 10435 ft | 306 kts | 249° |
| 2026-05-07 19:43 | 52.14846 | 20.48132 | 10703 ft | 323 kts | 251° |
| 2026-05-07 19:44 | 52.14155 | 20.44609 | 11302 ft | 329 kts | 252° |
| 2026-05-07 19:44 | 52.13486 | 20.41031 | 11980 ft | 332 kts | 252° |
| 2026-05-07 19:44 | 52.12821 | 20.37425 | 12668 ft | 334 kts | 252° |
| 2026-05-07 19:44 | 52.12149 | 20.33787 | 13349 ft | 337 kts | 252° |
| 2026-05-07 19:45 | 52.11467 | 20.30130 | 14003 ft | 339 kts | 251° |
| 2026-05-07 19:45 | 52.10770 | 20.26449 | 14624 ft | 341 kts | 251° |
| 2026-05-07 19:45 | 52.10063 | 20.22756 | 15265 ft | 343 kts | 251° |
| 2026-05-07 19:45 | 52.09347 | 20.19042 | 15893 ft | 345 kts | 250° |
| 2026-05-07 19:46 | 52.08633 | 20.15357 | 16516 ft | 347 kts | 250° |
| 2026-05-07 19:46 | 52.07903 | 20.11600 | 17144 ft | 349 kts | 250° |
| 2026-05-07 19:46 | 52.07171 | 20.07827 | 17759 ft | 352 kts | 250° |
| 2026-05-07 19:46 | 52.06431 | 20.04027 | 18373 ft | 354 kts | 250° |
| 2026-05-07 19:47 | 52.05685 | 20.00200 | 18893 ft | 356 kts | 250° |
| 2026-05-07 19:47 | 52.04932 | 19.96343 | 19395 ft | 360 kts | 249° |
| 2026-05-07 19:47 | 52.04164 | 19.92443 | 19858 ft | 364 kts | 248° |
| 2026-05-07 19:47 | 52.03355 | 19.88527 | 20349 ft | 367 kts | 247° |
| 2026-05-07 19:48 | 52.02508 | 19.84607 | 20882 ft | 369 kts | 246° |
| 2026-05-07 19:48 | 52.01652 | 19.80721 | 21400 ft | 372 kts | 246° |
| 2026-05-07 19:48 | 52.00774 | 19.76755 | 21933 ft | 374 kts | 245° |
| 2026-05-07 19:48 | 51.99894 | 19.72763 | 22428 ft | 377 kts | 245° |
| 2026-05-07 19:49 | 51.99012 | 19.68739 | 22937 ft | 380 kts | 245° |
| 2026-05-07 19:49 | 51.98127 | 19.64686 | 23421 ft | 382 kts | 245° |
| 2026-05-07 19:49 | 51.97343 | 19.60539 | 23831 ft | 388 kts | 249° |
| 2026-05-07 19:49 | 51.96674 | 19.56291 | 24232 ft | 390 kts | 250° |
| 2026-05-07 19:50 | 51.96041 | 19.52000 | 24639 ft | 392 kts | 251° |
| 2026-05-07 19:50 | 51.95433 | 19.47734 | 25040 ft | 394 kts | 251° |
| 2026-05-07 19:50 | 51.94817 | 19.43383 | 25436 ft | 396 kts | 251° |
| 2026-05-07 19:50 | 51.94195 | 19.39027 | 25828 ft | 398 kts | 251° |
| 2026-05-07 19:51 | 51.93562 | 19.34648 | 26207 ft | 400 kts | 250° |
| 2026-05-07 19:51 | 51.92919 | 19.30262 | 26593 ft | 401 kts | 250° |
| 2026-05-07 19:51 | 51.92263 | 19.25858 | 26976 ft | 403 kts | 250° |
| 2026-05-07 19:51 | 51.91599 | 19.21442 | 27350 ft | 405 kts | 250° |
| 2026-05-07 19:52 | 51.90932 | 19.17008 | 27725 ft | 406 kts | 250° |
| 2026-05-07 19:52 | 51.90272 | 19.12615 | 28089 ft | 408 kts | 250° |
| 2026-05-07 19:52 | 51.89600 | 19.08135 | 28444 ft | 410 kts | 250° |
| 2026-05-07 19:52 | 51.88926 | 19.03643 | 28810 ft | 412 kts | 250° |
| 2026-05-07 19:53 | 51.88248 | 18.99134 | 29164 ft | 414 kts | 250° |
| 2026-05-07 19:53 | 51.87563 | 18.94596 | 29509 ft | 415 kts | 249° |
| 2026-05-07 19:53 | 51.86872 | 18.90048 | 29852 ft | 417 kts | 249° |
| 2026-05-07 19:53 | 51.86175 | 18.85492 | 30179 ft | 419 kts | 249° |
| 2026-05-07 19:54 | 51.85471 | 18.80905 | 30500 ft | 420 kts | 249° |
| 2026-05-07 19:54 | 51.84762 | 18.76303 | 30759 ft | 423 kts | 249° |
| 2026-05-07 19:54 | 51.84049 | 18.71682 | 31066 ft | 424 kts | 249° |
| 2026-05-07 19:54 | 51.83345 | 18.67116 | 31479 ft | 423 kts | 249° |
| 2026-05-07 19:55 | 51.82636 | 18.62517 | 31894 ft | 421 kts | 249° |
| 2026-05-07 19:55 | 51.81931 | 18.57942 | 32324 ft | 419 kts | 249° |
| 2026-05-07 19:55 | 51.81225 | 18.53383 | 32746 ft | 417 kts | 249° |
| 2026-05-07 19:55 | 51.80520 | 18.48856 | 33159 ft | 415 kts | 249° |
| 2026-05-07 19:56 | 51.79814 | 18.44346 | 33574 ft | 413 kts | 249° |
| 2026-05-07 19:56 | 51.79111 | 18.39854 | 33966 ft | 412 kts | 249° |
| 2026-05-07 19:56 | 51.78405 | 18.35372 | 34267 ft | 412 kts | 249° |
| 2026-05-07 19:56 | 51.77697 | 18.30889 | 34519 ft | 412 kts | 250° |
| 2026-05-07 19:57 | 51.76989 | 18.26400 | 34743 ft | 413 kts | 250° |
| 2026-05-07 19:57 | 51.76281 | 18.21958 | 34959 ft | 415 kts | 250° |
| 2026-05-07 19:57 | 51.75556 | 18.17429 | 35091 ft | 419 kts | 250° |
| 2026-05-07 19:57 | 51.74825 | 18.12868 | 35284 ft | 420 kts | 250° |
| 2026-05-07 19:58 | 51.74094 | 18.08301 | 35510 ft | 421 kts | 250° |
| 2026-05-07 19:58 | 51.73363 | 18.03728 | 35735 ft | 422 kts | 251° |
| 2026-05-07 19:58 | 51.72629 | 17.99144 | 35956 ft | 423 kts | 251° |
| 2026-05-07 19:58 | 51.71891 | 17.94549 | 36046 ft | 423 kts | 251° |
| 2026-05-07 19:59 | 51.70408 | 17.85385 | 36065 ft | 422 kts | 251° |
| 2026-05-07 19:59 | 51.68929 | 17.76293 | 36062 ft | 422 kts | 251° |
| 2026-05-07 20:00 | 51.67441 | 17.67153 | 36092 ft | 422 kts | 251° |
| 2026-05-07 20:00 | 51.65934 | 17.57986 | 36072 ft | 425 kts | 251° |
| 2026-05-07 20:01 | 51.64408 | 17.48781 | 36072 ft | 426 kts | 251° |
| 2026-05-07 20:01 | 51.62885 | 17.39635 | 36080 ft | 426 kts | 251° |
| 2026-05-07 20:02 | 51.61338 | 17.30424 | 36083 ft | 427 kts | 251° |
| 2026-05-07 20:02 | 51.59794 | 17.21217 | 36086 ft | 427 kts | 251° |
| 2026-05-07 20:03 | 51.58242 | 17.11997 | 36088 ft | 427 kts | 251° |
| 2026-05-07 20:03 | 51.56688 | 17.02855 | 36099 ft | 427 kts | 252° |
| 2026-05-07 20:04 | 51.55112 | 16.93636 | 36088 ft | 429 kts | 252° |
| 2026-05-07 20:04 | 51.53523 | 16.84395 | 36082 ft | 429 kts | 252° |
| 2026-05-07 20:05 | 51.51927 | 16.75162 | 36079 ft | 430 kts | 252° |
| 2026-05-07 20:05 | 51.50321 | 16.65916 | 36082 ft | 430 kts | 252° |
| 2026-05-07 20:06 | 51.48726 | 16.56729 | 36084 ft | 430 kts | 251° |
| 2026-05-07 20:06 | 51.47111 | 16.47493 | 36097 ft | 430 kts | 252° |
| 2026-05-07 20:07 | 51.45480 | 16.38254 | 36090 ft | 431 kts | 252° |
| 2026-05-07 20:07 | 51.43842 | 16.29000 | 36087 ft | 431 kts | 252° |
| 2026-05-07 20:08 | 51.42204 | 16.19819 | 36084 ft | 432 kts | 252° |
| 2026-05-07 20:08 | 51.40544 | 16.10576 | 36083 ft | 432 kts | 252° |
| 2026-05-07 20:09 | 51.38885 | 16.01336 | 36087 ft | 432 kts | 252° |
| 2026-05-07 20:10 | 51.36381 | 15.87455 | 36080 ft | 434 kts | 252° |
| 2026-05-07 20:10 | 51.34701 | 15.78243 | 36076 ft | 434 kts | 252° |
| 2026-05-07 20:11 | 51.33006 | 15.68976 | 36080 ft | 435 kts | 252° |
| 2026-05-07 20:11 | 51.31297 | 15.59705 | 36081 ft | 435 kts | 252° |
| 2026-05-07 20:12 | 51.29578 | 15.50434 | 36083 ft | 435 kts | 252° |
| 2026-05-07 20:12 | 51.27855 | 15.41154 | 36099 ft | 435 kts | 252° |
| 2026-05-07 20:13 | 51.26137 | 15.31956 | 36082 ft | 436 kts | 252° |
| 2026-05-07 20:13 | 51.24393 | 15.22694 | 36088 ft | 436 kts | 252° |
| 2026-05-07 20:14 | 51.22652 | 15.13422 | 36083 ft | 436 kts | 252° |
| 2026-05-07 20:14 | 51.20898 | 15.04174 | 36082 ft | 436 kts | 252° |
| 2026-05-07 20:15 | 51.19088 | 14.95030 | 36084 ft | 435 kts | 250° |
| 2026-05-07 20:15 | 51.17139 | 14.85900 | 36089 ft | 435 kts | 250° |
| 2026-05-07 20:16 | 51.15158 | 14.76792 | 36078 ft | 436 kts | 250° |
| 2026-05-07 20:16 | 51.13186 | 14.67659 | 36079 ft | 436 kts | 250° |
| 2026-05-07 20:17 | 51.11221 | 14.58523 | 36077 ft | 436 kts | 250° |
| 2026-05-07 20:17 | 51.09263 | 14.49453 | 36076 ft | 437 kts | 250° |
| 2026-05-07 20:18 | 51.07286 | 14.40325 | 36082 ft | 436 kts | 250° |
| 2026-05-07 20:18 | 51.05300 | 14.31218 | 36096 ft | 436 kts | 250° |
| 2026-05-07 20:19 | 51.03302 | 14.22106 | 36083 ft | 437 kts | 250° |
| 2026-05-07 20:19 | 51.01311 | 14.13065 | 36083 ft | 437 kts | 250° |
| 2026-05-07 20:20 | 50.99297 | 14.03953 | 36097 ft | 437 kts | 250° |
| 2026-05-07 20:20 | 50.97277 | 13.94849 | 36089 ft | 437 kts | 250° |
| 2026-05-07 20:21 | 50.95248 | 13.85746 | 36094 ft | 437 kts | 250° |
| 2026-05-07 20:21 | 50.93216 | 13.76665 | 36095 ft | 437 kts | 250° |
| 2026-05-07 20:22 | 50.91188 | 13.67652 | 36097 ft | 437 kts | 250° |
| 2026-05-07 20:22 | 50.89138 | 13.58575 | 36096 ft | 437 kts | 250° |
| 2026-05-07 20:23 | 50.87083 | 13.49506 | 36094 ft | 438 kts | 250° |
| 2026-05-07 20:23 | 50.85017 | 13.40447 | 36095 ft | 437 kts | 250° |
| 2026-05-07 20:24 | 50.82963 | 13.31472 | 36089 ft | 437 kts | 250° |
| 2026-05-07 20:24 | 50.80894 | 13.22446 | 36099 ft | 437 kts | 250° |
| 2026-05-07 20:25 | 50.78810 | 13.13417 | 36095 ft | 437 kts | 250° |
| 2026-05-07 20:25 | 50.76730 | 13.04468 | 36093 ft | 437 kts | 250° |
| 2026-05-07 20:26 | 50.74636 | 12.95471 | 36101 ft | 437 kts | 250° |
| 2026-05-07 20:26 | 50.72537 | 12.86476 | 36101 ft | 436 kts | 250° |
| 2026-05-07 20:27 | 50.70432 | 12.77505 | 36107 ft | 437 kts | 250° |
| 2026-05-07 20:27 | 50.68313 | 12.68519 | 36114 ft | 437 kts | 250° |
| 2026-05-07 20:28 | 50.66206 | 12.59612 | 36111 ft | 436 kts | 250° |
| 2026-05-07 20:28 | 50.64080 | 12.50661 | 36109 ft | 436 kts | 250° |
| 2026-05-07 20:29 | 50.61951 | 12.41728 | 36107 ft | 435 kts | 250° |
| 2026-05-07 20:29 | 50.59817 | 12.32818 | 36109 ft | 435 kts | 250° |
| 2026-05-07 20:30 | 50.57691 | 12.23997 | 36110 ft | 434 kts | 249° |
| 2026-05-07 20:30 | 50.55544 | 12.15120 | 36110 ft | 434 kts | 249° |
| 2026-05-07 20:31 | 50.53398 | 12.06251 | 36108 ft | 434 kts | 249° |
| 2026-05-07 20:31 | 50.51247 | 11.97396 | 36105 ft | 434 kts | 249° |
| 2026-05-07 20:32 | 50.49084 | 11.88540 | 36105 ft | 434 kts | 249° |
| 2026-05-07 20:32 | 50.46930 | 11.79755 | 36105 ft | 434 kts | 249° |
| 2026-05-07 20:33 | 50.44755 | 11.70913 | 36102 ft | 434 kts | 249° |
| 2026-05-07 20:33 | 50.42572 | 11.62079 | 36110 ft | 434 kts | 249° |
| 2026-05-07 20:34 | 50.40374 | 11.53252 | 36108 ft | 435 kts | 249° |
| 2026-05-07 20:34 | 50.38187 | 11.44503 | 36105 ft | 434 kts | 249° |
| 2026-05-07 20:35 | 50.35981 | 11.35691 | 36108 ft | 435 kts | 249° |
| 2026-05-07 20:35 | 50.33767 | 11.26877 | 36110 ft | 435 kts | 249° |
| 2026-05-07 20:36 | 50.31546 | 11.18087 | 36106 ft | 434 kts | 249° |
| 2026-05-07 20:36 | 50.29338 | 11.09360 | 36108 ft | 434 kts | 249° |
| 2026-05-07 20:37 | 50.27113 | 11.00600 | 36109 ft | 433 kts | 249° |
| 2026-05-07 20:37 | 50.24884 | 10.91850 | 36107 ft | 433 kts | 249° |
| 2026-05-07 20:38 | 50.22649 | 10.83120 | 36109 ft | 433 kts | 249° |
| 2026-05-07 20:38 | 50.20399 | 10.74404 | 36108 ft | 433 kts | 249° |
| 2026-05-07 20:39 | 50.18165 | 10.65751 | 36112 ft | 433 kts | 249° |
| 2026-05-07 20:39 | 50.15906 | 10.57050 | 36101 ft | 433 kts | 249° |
| 2026-05-07 20:40 | 50.13651 | 10.48366 | 36106 ft | 432 kts | 249° |
| 2026-05-07 20:40 | 50.11387 | 10.39701 | 36109 ft | 431 kts | 249° |
| 2026-05-07 20:41 | 50.09127 | 10.31108 | 36110 ft | 431 kts | 249° |
| 2026-05-07 20:41 | 50.07449 | 10.22204 | 36110 ft | 429 kts | 264° |
| 2026-05-07 20:42 | 50.07277 | 10.12932 | 36107 ft | 429 kts | 269° |
| 2026-05-07 20:42 | 50.07218 | 10.03649 | 36107 ft | 429 kts | 269° |
| 2026-05-07 20:43 | 50.07141 | 9.94428 | 36106 ft | 429 kts | 269° |
| 2026-05-07 20:43 | 50.07065 | 9.85150 | 36106 ft | 429 kts | 269° |
| 2026-05-07 20:44 | 50.06987 | 9.75872 | 36108 ft | 429 kts | 269° |
| 2026-05-07 20:44 | 50.06895 | 9.66590 | 36108 ft | 429 kts | 269° |
| 2026-05-07 20:45 | 50.06794 | 9.57321 | 36105 ft | 428 kts | 269° |
| 2026-05-07 20:45 | 50.06652 | 9.48116 | 36106 ft | 428 kts | 265° |
| 2026-05-07 20:46 | 50.06023 | 9.38902 | 36103 ft | 428 kts | 264° |
| 2026-05-07 20:46 | 50.05380 | 9.29699 | 36103 ft | 428 kts | 264° |
| 2026-05-07 20:47 | 50.04734 | 9.20502 | 36097 ft | 427 kts | 264° |
| 2026-05-07 20:47 | 50.04083 | 9.11376 | 36101 ft | 427 kts | 264° |
| 2026-05-07 20:48 | 50.03423 | 9.02200 | 36103 ft | 427 kts | 264° |
| 2026-05-07 20:48 | 50.02757 | 8.93038 | 36101 ft | 426 kts | 263° |
| 2026-05-07 20:49 | 50.02079 | 8.83885 | 36099 ft | 426 kts | 263° |
| 2026-05-07 20:49 | 50.01392 | 8.74737 | 36098 ft | 426 kts | 263° |
| 2026-05-07 20:50 | 50.00701 | 8.65653 | 36097 ft | 426 kts | 263° |
| 2026-05-07 20:50 | 50.00009 | 8.56507 | 36096 ft | 426 kts | 263° |
| 2026-05-07 20:51 | 49.99310 | 8.47374 | 36099 ft | 426 kts | 263° |
| 2026-05-07 20:51 | 49.98605 | 8.38231 | 36106 ft | 426 kts | 263° |
| 2026-05-07 20:52 | 49.97892 | 8.29159 | 36104 ft | 426 kts | 263° |
| 2026-05-07 20:52 | 49.97157 | 8.20025 | 36105 ft | 426 kts | 263° |
| 2026-05-07 20:53 | 49.96422 | 8.10899 | 36110 ft | 426 kts | 263° |
| 2026-05-07 20:53 | 49.95687 | 8.01783 | 36109 ft | 425 kts | 263° |
| 2026-05-07 20:54 | 49.94950 | 7.92732 | 36108 ft | 425 kts | 263° |
| 2026-05-07 20:54 | 49.94197 | 7.83624 | 36106 ft | 425 kts | 262° |
| 2026-05-07 20:55 | 49.93436 | 7.74527 | 36099 ft | 425 kts | 262° |
| 2026-05-07 20:55 | 49.92680 | 7.65505 | 36109 ft | 425 kts | 262° |
| 2026-05-07 20:56 | 49.91909 | 7.56422 | 36109 ft | 424 kts | 262° |
| 2026-05-07 20:56 | 49.91127 | 7.47357 | 36110 ft | 424 kts | 262° |
| 2026-05-07 20:57 | 49.90333 | 7.38310 | 36105 ft | 423 kts | 262° |
| 2026-05-07 20:57 | 49.89541 | 7.29258 | 36104 ft | 423 kts | 262° |
| 2026-05-07 20:58 | 49.88750 | 7.20280 | 36110 ft | 423 kts | 262° |
| 2026-05-07 20:58 | 49.87947 | 7.11254 | 36109 ft | 423 kts | 262° |
| 2026-05-07 20:59 | 49.87138 | 7.02230 | 36110 ft | 422 kts | 262° |
| 2026-05-07 20:59 | 49.86323 | 6.93219 | 36109 ft | 422 kts | 262° |
| 2026-05-07 21:00 | 49.85507 | 6.84273 | 36099 ft | 422 kts | 262° |
| 2026-05-07 21:00 | 49.84673 | 6.75286 | 36102 ft | 422 kts | 261° |
| 2026-05-07 21:01 | 49.83829 | 6.66296 | 36092 ft | 422 kts | 261° |
| 2026-05-07 21:01 | 49.82984 | 6.57304 | 36089 ft | 421 kts | 261° |
| 2026-05-07 21:02 | 49.82132 | 6.48325 | 36087 ft | 421 kts | 261° |
| 2026-05-07 21:02 | 49.81247 | 6.39414 | 36086 ft | 421 kts | 259° |
| 2026-05-07 21:03 | 49.80102 | 6.30520 | 36093 ft | 421 kts | 257° |
| 2026-05-07 21:03 | 49.78853 | 6.21665 | 36087 ft | 421 kts | 257° |
| 2026-05-07 21:04 | 49.77636 | 6.12795 | 36089 ft | 421 kts | 258° |
| 2026-05-07 21:04 | 49.76429 | 6.03993 | 36090 ft | 421 kts | 257° |
| 2026-05-07 21:05 | 49.75091 | 5.95182 | 36093 ft | 421 kts | 256° |
| 2026-05-07 21:05 | 49.73712 | 5.86387 | 36090 ft | 421 kts | 256° |
| 2026-05-07 21:06 | 49.72340 | 5.77586 | 36092 ft | 421 kts | 256° |
| 2026-05-07 21:06 | 49.70998 | 5.68833 | 36091 ft | 421 kts | 256° |
| 2026-05-07 21:07 | 49.69643 | 5.60028 | 36092 ft | 421 kts | 256° |
| 2026-05-07 21:07 | 49.68269 | 5.51229 | 36092 ft | 422 kts | 256° |
| 2026-05-07 21:08 | 49.66885 | 5.42429 | 36091 ft | 422 kts | 256° |
| 2026-05-07 21:08 | 49.65739 | 5.35115 | 36096 ft | 422 kts | 256° |
| 2026-05-07 21:09 | 49.64120 | 5.24910 | 36091 ft | 421 kts | 256° |
| 2026-05-07 21:09 | 49.62722 | 5.16136 | 36077 ft | 421 kts | 256° |
| 2026-05-07 21:10 | 49.61557 | 5.08853 | 36083 ft | 421 kts | 256° |
| 2026-05-07 21:10 | 49.60148 | 5.00096 | 36088 ft | 421 kts | 256° |
| 2026-05-07 21:11 | 49.58497 | 4.89915 | 36097 ft | 421 kts | 256° |
| 2026-05-07 21:11 | 49.56600 | 4.78273 | 36093 ft | 421 kts | 255° |
| 2026-05-07 21:12 | 49.55884 | 4.73901 | 35939 ft | 421 kts | 255° |
| 2026-05-07 21:12 | 49.55170 | 4.69545 | 35528 ft | 418 kts | 255° |
| 2026-05-07 21:12 | 49.54461 | 4.65213 | 35085 ft | 415 kts | 255° |
| 2026-05-07 21:12 | 49.53754 | 4.60919 | 34633 ft | 413 kts | 255° |
| 2026-05-07 21:13 | 49.52821 | 4.55277 | 34028 ft | 409 kts | 255° |
| 2026-05-07 21:13 | 49.52346 | 4.52414 | 33685 ft | 407 kts | 255° |
| 2026-05-07 21:13 | 49.51649 | 4.48218 | 33245 ft | 402 kts | 255° |
| 2026-05-07 21:13 | 49.50967 | 4.44125 | 32804 ft | 398 kts | 255° |
| 2026-05-07 21:14 | 49.50281 | 4.40027 | 32359 ft | 394 kts | 255° |
| 2026-05-07 21:14 | 49.49599 | 4.35964 | 31920 ft | 390 kts | 255° |
| 2026-05-07 21:14 | 49.48928 | 4.31945 | 31492 ft | 386 kts | 255° |
| 2026-05-07 21:14 | 49.48260 | 4.27965 | 31063 ft | 383 kts | 255° |
| 2026-05-07 21:15 | 49.47595 | 4.24029 | 30637 ft | 379 kts | 255° |
| 2026-05-07 21:15 | 49.46931 | 4.20121 | 30222 ft | 376 kts | 255° |
| 2026-05-07 21:15 | 49.46270 | 4.16232 | 29790 ft | 377 kts | 255° |
| 2026-05-07 21:15 | 49.45617 | 4.12376 | 29364 ft | 378 kts | 255° |
| 2026-05-07 21:16 | 49.44953 | 4.08479 | 28938 ft | 376 kts | 255° |
| 2026-05-07 21:16 | 49.44294 | 4.04603 | 28518 ft | 374 kts | 255° |
| 2026-05-07 21:16 | 49.43635 | 4.00753 | 28107 ft | 371 kts | 255° |
| 2026-05-07 21:16 | 49.42981 | 3.96931 | 27702 ft | 369 kts | 255° |
| 2026-05-07 21:17 | 49.42330 | 3.93132 | 27299 ft | 367 kts | 255° |
| 2026-05-07 21:17 | 49.41681 | 3.89358 | 26906 ft | 365 kts | 255° |
| 2026-05-07 21:17 | 49.41034 | 3.85602 | 26519 ft | 363 kts | 255° |
| 2026-05-07 21:17 | 49.40399 | 3.81922 | 26139 ft | 360 kts | 255° |
| 2026-05-07 21:18 | 49.39761 | 3.78214 | 25756 ft | 358 kts | 255° |
| 2026-05-07 21:18 | 49.39125 | 3.74528 | 25385 ft | 356 kts | 255° |
| 2026-05-07 21:18 | 49.38489 | 3.70862 | 25011 ft | 355 kts | 255° |
| 2026-05-07 21:18 | 49.37854 | 3.67220 | 24653 ft | 353 kts | 255° |
| 2026-05-07 21:19 | 49.37221 | 3.63590 | 24297 ft | 351 kts | 255° |
| 2026-05-07 21:19 | 49.36591 | 3.59984 | 23943 ft | 349 kts | 255° |
| 2026-05-07 21:19 | 49.35960 | 3.56393 | 23585 ft | 348 kts | 255° |
| 2026-05-07 21:19 | 49.35339 | 3.52876 | 23178 ft | 345 kts | 255° |
| 2026-05-07 21:20 | 49.34715 | 3.49336 | 22769 ft | 343 kts | 255° |
| 2026-05-07 21:20 | 49.34093 | 3.45812 | 22356 ft | 341 kts | 255° |
| 2026-05-07 21:20 | 49.33476 | 3.42314 | 21954 ft | 339 kts | 255° |
| 2026-05-07 21:20 | 49.32862 | 3.38838 | 21557 ft | 337 kts | 255° |
| 2026-05-07 21:21 | 49.32250 | 3.35380 | 21169 ft | 335 kts | 255° |
| 2026-05-07 21:21 | 49.31639 | 3.31947 | 20776 ft | 333 kts | 255° |
| 2026-05-07 21:21 | 49.31033 | 3.28534 | 20400 ft | 331 kts | 255° |
| 2026-05-07 21:21 | 49.30430 | 3.25135 | 20024 ft | 329 kts | 255° |
| 2026-05-07 21:22 | 49.29835 | 3.21804 | 19655 ft | 328 kts | 255° |
| 2026-05-07 21:22 | 49.29232 | 3.18444 | 19287 ft | 326 kts | 255° |
| 2026-05-07 21:22 | 49.28632 | 3.15109 | 18929 ft | 324 kts | 255° |
| 2026-05-07 21:22 | 49.28034 | 3.11782 | 18579 ft | 323 kts | 255° |
| 2026-05-07 21:23 | 49.27441 | 3.08481 | 18198 ft | 321 kts | 255° |
| 2026-05-07 21:23 | 49.26851 | 3.05197 | 17796 ft | 319 kts | 255° |
| 2026-05-07 21:23 | 49.26263 | 3.01931 | 17345 ft | 318 kts | 255° |
| 2026-05-07 21:23 | 49.25673 | 2.98673 | 16857 ft | 317 kts | 254° |
| 2026-05-07 21:24 | 49.25086 | 2.95444 | 16476 ft | 313 kts | 254° |
| 2026-05-07 21:24 | 49.24514 | 2.92293 | 16107 ft | 310 kts | 254° |
| 2026-05-07 21:24 | 49.23939 | 2.89137 | 15738 ft | 306 kts | 254° |
| 2026-05-07 21:24 | 49.23370 | 2.86015 | 15371 ft | 303 kts | 254° |
| 2026-05-07 21:25 | 49.22807 | 2.82920 | 15012 ft | 301 kts | 254° |
| 2026-05-07 21:25 | 49.22248 | 2.79852 | 14653 ft | 298 kts | 254° |
| 2026-05-07 21:25 | 49.21691 | 2.76811 | 14301 ft | 296 kts | 254° |
| 2026-05-07 21:25 | 49.21137 | 2.73789 | 13947 ft | 294 kts | 253° |
| 2026-05-07 21:26 | 49.20586 | 2.70792 | 13566 ft | 292 kts | 253° |
| 2026-05-07 21:26 | 49.20036 | 2.67822 | 13218 ft | 289 kts | 253° |
| 2026-05-07 21:26 | 49.19499 | 2.64919 | 12883 ft | 286 kts | 253° |
| 2026-05-07 21:26 | 49.18962 | 2.62012 | 12535 ft | 283 kts | 253° |
| 2026-05-07 21:27 | 49.18427 | 2.59130 | 12194 ft | 281 kts | 254° |
| 2026-05-07 21:27 | 49.18074 | 2.56214 | 11872 ft | 278 kts | 266° |
| 2026-05-07 21:27 | 49.18014 | 2.53233 | 11570 ft | 284 kts | 268° |
| 2026-05-07 21:27 | 49.17957 | 2.50213 | 11276 ft | 284 kts | 267° |
| 2026-05-07 21:28 | 49.17894 | 2.47192 | 10969 ft | 283 kts | 267° |
| 2026-05-07 21:28 | 49.17827 | 2.44187 | 10674 ft | 282 kts | 267° |
| 2026-05-07 21:28 | 49.17757 | 2.41199 | 10364 ft | 281 kts | 267° |
| 2026-05-07 21:28 | 49.17690 | 2.38261 | 10070 ft | 280 kts | 267° |
| 2026-05-07 21:29 | 49.17594 | 2.35296 | 9739 ft | 278 kts | 265° |
| 2026-05-07 21:29 | 49.17425 | 2.32352 | 9417 ft | 277 kts | 264° |
| 2026-05-07 21:29 | 49.17224 | 2.29428 | 9103 ft | 277 kts | 263° |
| 2026-05-07 21:29 | 49.17013 | 2.26510 | 8792 ft | 276 kts | 263° |
| 2026-05-07 21:30 | 49.16807 | 2.23602 | 8486 ft | 275 kts | 264° |
| 2026-05-07 21:30 | 49.16608 | 2.20702 | 8179 ft | 274 kts | 264° |
| 2026-05-07 21:30 | 49.16411 | 2.17810 | 7869 ft | 273 kts | 264° |
| 2026-05-07 21:30 | 49.15910 | 2.15071 | 7560 ft | 273 kts | 241° |
| 2026-05-07 21:31 | 49.14648 | 2.12938 | 7261 ft | 274 kts | 213° |
| 2026-05-07 21:31 | 49.12874 | 2.11933 | 6938 ft | 275 kts | 185° |
| 2026-05-07 21:31 | 49.10964 | 2.12047 | 6621 ft | 276 kts | 175° |
| 2026-05-07 21:31 | 49.09053 | 2.12311 | 6299 ft | 276 kts | 174° |
| 2026-05-07 21:32 | 49.07178 | 2.12579 | 6186 ft | 265 kts | 174° |
| 2026-05-07 21:32 | 49.05381 | 2.12830 | 6074 ft | 254 kts | 175° |
| 2026-05-07 21:32 | 49.03677 | 2.13060 | 5964 ft | 239 kts | 175° |
| 2026-05-07 21:32 | 49.02083 | 2.13276 | 5845 ft | 226 kts | 175° |
| 2026-05-07 21:33 | 49.00542 | 2.13485 | 5752 ft | 220 kts | 175° |
| 2026-05-07 21:33 | 48.99025 | 2.13712 | 5645 ft | 217 kts | 171° |
| 2026-05-07 21:33 | 48.97746 | 2.14663 | 5540 ft | 198 kts | 134° |
| 2026-05-07 21:33 | 48.97152 | 2.16421 | 5380 ft | 184 kts | 92° |
| 2026-05-07 21:34 | 48.97229 | 2.18251 | 5307 ft | 163 kts | 86° |
| 2026-05-07 21:34 | 48.97288 | 2.19919 | 5115 ft | 154 kts | 85° |
| 2026-05-07 21:34 | 48.97362 | 2.21532 | 4924 ft | 152 kts | 85° |
| 2026-05-07 21:34 | 48.97445 | 2.23122 | 4724 ft | 150 kts | 85° |
| 2026-05-07 21:35 | 48.97532 | 2.24705 | 4520 ft | 149 kts | 85° |
| 2026-05-07 21:35 | 48.97618 | 2.26255 | 4319 ft | 149 kts | 85° |
| 2026-05-07 21:35 | 48.97706 | 2.27816 | 4118 ft | 147 kts | 85° |
| 2026-05-07 21:35 | 48.97793 | 2.29364 | 3918 ft | 147 kts | 85° |
| 2026-05-07 21:36 | 48.97879 | 2.30908 | 3723 ft | 146 kts | 85° |
| 2026-05-07 21:36 | 48.97966 | 2.32446 | 3531 ft | 145 kts | 85° |
| 2026-05-07 21:36 | 48.98051 | 2.33972 | 3333 ft | 144 kts | 85° |
| 2026-05-07 21:36 | 48.98136 | 2.35491 | 3135 ft | 144 kts | 86° |
| 2026-05-07 21:37 | 48.98220 | 2.37001 | 2939 ft | 143 kts | 85° |
| 2026-05-07 21:37 | 48.98302 | 2.38482 | 2750 ft | 142 kts | 86° |
| 2026-05-07 21:37 | 48.98385 | 2.39973 | 2559 ft | 141 kts | 86° |
| 2026-05-07 21:37 | 48.98467 | 2.41460 | 2367 ft | 141 kts | 85° |
| 2026-05-07 21:38 | 48.98548 | 2.42941 | 2176 ft | 140 kts | 85° |
| 2026-05-07 21:38 | 48.98629 | 2.44410 | 1985 ft | 139 kts | 86° |
| 2026-05-07 21:38 | 48.98709 | 2.45870 | 1794 ft | 138 kts | 86° |
| 2026-05-07 21:38 | 48.98789 | 2.47321 | 1610 ft | 138 kts | 86° |
| 2026-05-07 21:39 | 48.98868 | 2.48772 | 1418 ft | 137 kts | 86° |
| 2026-05-07 21:39 | 48.98948 | 2.50219 | 1220 ft | 137 kts | 86° |
| 2026-05-07 21:39 | 48.99023 | 2.51649 | 1014 ft | 137 kts | 85° |
| 2026-05-07 21:39 | 48.99107 | 2.53095 | 813 ft | 137 kts | 85° |
| 2026-05-07 21:40 | 48.99178 | 2.54539 | 611 ft | 137 kts | 84° |
| 2026-05-07 21:40 | 48.99257 | 2.55976 | 454 ft | 136 kts | 84° |
| 2026-05-07 21:40 | 48.99337 | 2.57378 | 358 ft | 121 kts | 83° |
| 2026-05-07 21:40 | 48.99384 | 2.58278 | 358 ft | 42 kts | 86° |
| 2026-05-07 21:41 | 48.99425 | 2.58557 | 359 ft | 20 kts | 65° |
| 2026-05-07 21:41 | 48.99460 | 2.58669 | 360 ft | 4 kts | 65° |
| 2026-05-07 21:41 | 48.99470 | 2.58700 | 356 ft | 3 kts | 66° |
| 2026-05-07 21:41 | 48.99482 | 2.58741 | 357 ft | 5 kts | 66° |
| 2026-05-07 21:42 | 48.99499 | 2.58802 | 360 ft | 7 kts | 66° |
| 2026-05-07 21:42 | 48.99523 | 2.58881 | 364 ft | 9 kts | 65° |
| 2026-05-07 21:42 | 48.99543 | 2.58946 | 361 ft | 7 kts | 64° |
| 2026-05-07 21:42 | 48.99569 | 2.59026 | 358 ft | 9 kts | 64° |
| 2026-05-07 21:43 | 48.99598 | 2.59126 | 354 ft | 11 kts | 71° |
| 2026-05-07 21:43 | 48.99610 | 2.59252 | 354 ft | 13 kts | 85° |
| 2026-05-07 21:43 | 48.99617 | 2.59397 | 357 ft | 15 kts | 85° |
| 2026-05-07 21:43 | 48.99625 | 2.59560 | 361 ft | 16 kts | 85° |
| 2026-05-07 21:44 | 48.99687 | 2.59683 | 354 ft | 17 kts | 8° |
| 2026-05-07 21:44 | 48.99814 | 2.59671 | 357 ft | 20 kts | 356° |
| 2026-05-07 21:44 | 48.99949 | 2.59656 | 358 ft | 20 kts | 356° |
| 2026-05-07 21:44 | 49.00068 | 2.59616 | 357 ft | 13 kts | 302° |
| 2026-05-07 21:45 | 49.00072 | 2.59457 | 354 ft | 19 kts | 265° |
| 2026-05-07 21:45 | 49.00061 | 2.59246 | 357 ft | 21 kts | 265° |
| 2026-05-07 21:45 | 49.00049 | 2.59020 | 354 ft | 22 kts | 265° |
| 2026-05-07 21:45 | 49.00036 | 2.58782 | 354 ft | 23 kts | 265° |
| 2026-05-07 21:46 | 49.00023 | 2.58535 | 354 ft | 24 kts | 266° |
| 2026-05-07 21:46 | 49.00010 | 2.58273 | 359 ft | 25 kts | 265° |
| 2026-05-07 21:46 | 48.99996 | 2.58006 | 354 ft | 19 kts | 265° |
| 2026-05-07 21:46 | 48.99984 | 2.57796 | 357 ft | 21 kts | 265° |
| 2026-05-07 21:47 | 48.99972 | 2.57571 | 359 ft | 22 kts | 266° |
| 2026-05-07 21:47 | 48.99958 | 2.57334 | 360 ft | 23 kts | 265° |
| 2026-05-07 21:47 | 48.99946 | 2.57084 | 361 ft | 24 kts | 266° |
| 2026-05-07 21:47 | 48.99930 | 2.56823 | 362 ft | 25 kts | 265° |
| 2026-05-07 21:48 | 48.99919 | 2.56597 | 354 ft | 22 kts | 266° |
| 2026-05-07 21:48 | 48.99907 | 2.56361 | 354 ft | 23 kts | 266° |
| 2026-05-07 21:48 | 48.99894 | 2.56114 | 354 ft | 24 kts | 265° |
| 2026-05-07 21:48 | 48.99905 | 2.55859 | 359 ft | 25 kts | 284° |
| 2026-05-07 21:49 | 49.00001 | 2.55666 | 357 ft | 24 kts | 343° |
| 2026-05-07 21:49 | 49.00167 | 2.55594 | 362 ft | 25 kts | 343° |
| 2026-05-07 21:49 | 49.00339 | 2.55519 | 360 ft | 26 kts | 344° |
| 2026-05-07 21:49 | 49.00514 | 2.55441 | 361 ft | 27 kts | 343° |
| 2026-05-07 21:50 | 49.00678 | 2.55371 | 356 ft | 22 kts | 344° |
| 2026-05-07 21:50 | 49.00825 | 2.55309 | 355 ft | 23 kts | 345° |
| 2026-05-07 21:50 | 49.00980 | 2.55239 | 361 ft | 24 kts | 343° |
| 2026-05-07 21:50 | 49.01142 | 2.55167 | 361 ft | 25 kts | 344° |
| 2026-05-07 21:51 | 49.01236 | 2.55034 | 355 ft | 18 kts | 267° |
| 2026-05-07 21:51 | 49.01225 | 2.54837 | 360 ft | 19 kts | 265° |
| 2026-05-07 21:51 | 49.01215 | 2.54647 | 359 ft | 11 kts | 266° |
| 2026-05-07 21:51 | 49.01201 | 2.54615 | 361 ft | 2 kts | 200° |
| 2026-05-07 21:52 | 49.01181 | 2.54616 | 360 ft | 4 kts | 176° |
| 2026-05-07 21:52 | 49.01147 | 2.54620 | 361 ft | 3 kts | 175° |
| 2026-05-07 21:52 | 49.01144 | 2.54620 | 361 ft | 0 kts | 175° |
| 2026-05-07 21:56 | 49.01145 | 2.54620 | 354 ft | 0 kts | 175° |